sensor_id;sensor_type;location;lat;lon;timestamp;temperature;humidity
44767;DHT22;30487;48.716;9.272;2022-12-24T00:00:22;10.30;99.90
44767;DHT22;30487;48.716;9.272;2022-12-24T00:02:49;10.20;99.90
44767;DHT22;30487;48.716;9.272;2022-12-24T00:05:15;10.20;99.90
44767;DHT22;30487;48.716;9.272;2022-12-24T00:07:40;10.20;99.90
44767;DHT22;30487;48.716;9.272;2022-12-24T00:10:07;10.20;99.90
44767;DHT22;30487;48.716;9.272;2022-12-24T00:12:32;10.20;99.90
44767;DHT22;30487;48.716;9.272;2022-12-24T00:14:58;10.20;99.90
44767;DHT22;30487;48.716;9.272;2022-12-24T00:17:24;10.20;99.90
44767;DHT22;30487;48.716;9.272;2022-12-24T00:19:49;10.20;99.90
44767;DHT22;30487;48.716;9.272;2022-12-24T00:22:15;10.20;99.90
44767;DHT22;30487;48.716;9.272;2022-12-24T00:24:40;10.20;99.90
44767;DHT22;30487;48.716;9.272;2022-12-24T00:27:06;10.20;99.90
44767;DHT22;30487;48.716;9.272;2022-12-24T00:29:32;10.20;99.90
44767;DHT22;30487;48.716;9.272;2022-12-24T00:31:58;10.20;99.90
44767;DHT22;30487;48.716;9.272;2022-12-24T00:34:24;10.20;99.90
44767;DHT22;30487;48.716;9.272;2022-12-24T00:36:49;10.20;99.90
44767;DHT22;30487;48.716;9.272;2022-12-24T00:39:15;10.20;99.90
44767;DHT22;30487;48.716;9.272;2022-12-24T00:41:41;10.20;99.90
44767;DHT22;30487;48.716;9.272;2022-12-24T00:44:06;10.30;99.90
44767;DHT22;30487;48.716;9.272;2022-12-24T00:46:38;10.20;99.90
44767;DHT22;30487;48.716;9.272;2022-12-24T00:49:05;10.20;99.90
44767;DHT22;30487;48.716;9.272;2022-12-24T00:51:32;10.20;99.90
44767;DHT22;30487;48.716;9.272;2022-12-24T00:53:58;10.20;99.90
44767;DHT22;30487;48.716;9.272;2022-12-24T00:56:24;10.20;99.90
44767;DHT22;30487;48.716;9.272;2022-12-24T00:58:50;10.10;99.90
44767;DHT22;30487;48.716;9.272;2022-12-24T01:01:15;10.10;99.90
44767;DHT22;30487;48.716;9.272;2022-12-24T01:03:41;10.20;99.90
44767;DHT22;30487;48.716;9.272;2022-12-24T01:06:12;10.20;99.90
44767;DHT22;30487;48.716;9.272;2022-12-24T01:08:38;10.10;99.90
44767;DHT22;30487;48.716;9.272;2022-12-24T01:11:05;10.20;99.90
44767;DHT22;30487;48.716;9.272;2022-12-24T01:13:30;10.10;99.90
44767;DHT22;30487;48.716;9.272;2022-12-24T01:15:56;10.10;99.90
44767;DHT22;30487;48.716;9.272;2022-12-24T01:18:22;10.10;99.90
44767;DHT22;30487;48.716;9.272;2022-12-24T01:20:59;10.10;99.90
44767;DHT22;30487;48.716;9.272;2022-12-24T01:23:25;10.10;99.90
44767;DHT22;30487;48.716;9.272;2022-12-24T01:25:51;10.10;99.90
44767;DHT22;30487;48.716;9.272;2022-12-24T01:28:18;10.10;99.90
44767;DHT22;30487;48.716;9.272;2022-12-24T01:30:43;10.10;99.90
44767;DHT22;30487;48.716;9.272;2022-12-24T01:33:09;10.10;99.90
44767;DHT22;30487;48.716;9.272;2022-12-24T01:35:38;10.20;99.90
44767;DHT22;30487;48.716;9.272;2022-12-24T01:38:04;10.10;99.90
44767;DHT22;30487;48.716;9.272;2022-12-24T01:40:30;10.20;99.90
44767;DHT22;30487;48.716;9.272;2022-12-24T01:43:17;10.10;99.90
44767;DHT22;30487;48.716;9.272;2022-12-24T01:45:49;10.10;99.90
44767;DHT22;30487;48.716;9.272;2022-12-24T01:50:41;10.20;99.90
44767;DHT22;30487;48.716;9.272;2022-12-24T01:53:07;10.10;99.90
44767;DHT22;30487;48.716;9.272;2022-12-24T01:55:34;10.20;99.90
44767;DHT22;30487;48.716;9.272;2022-12-24T01:58:02;10.10;99.90
44767;DHT22;30487;48.716;9.272;2022-12-24T02:00:28;10.20;99.90
44767;DHT22;30487;48.716;9.272;2022-12-24T02:02:54;10.10;99.90
44767;DHT22;30487;48.716;9.272;2022-12-24T02:07:46;10.10;99.90
44767;DHT22;30487;48.716;9.272;2022-12-24T02:10:13;10.10;99.90
44767;DHT22;30487;48.716;9.272;2022-12-24T02:12:39;10.10;99.90
44767;DHT22;30487;48.716;9.272;2022-12-24T02:15:08;10.10;99.90
44767;DHT22;30487;48.716;9.272;2022-12-24T02:23:18;10.10;99.90
44767;DHT22;30487;48.716;9.272;2022-12-24T02:31:28;10.10;99.90
44767;DHT22;30487;48.716;9.272;2022-12-24T02:34:06;10.10;99.90
44767;DHT22;30487;48.716;9.272;2022-12-24T02:36:43;10.10;99.90
44767;DHT22;30487;48.716;9.272;2022-12-24T02:39:17;10.10;99.90
44767;DHT22;30487;48.716;9.272;2022-12-24T02:41:48;10.10;99.90
44767;DHT22;30487;48.716;9.272;2022-12-24T02:44:33;10.10;99.90
44767;DHT22;30487;48.716;9.272;2022-12-24T02:47:02;10.10;99.90
44767;DHT22;30487;48.716;9.272;2022-12-24T02:49:28;10.10;99.90
44767;DHT22;30487;48.716;9.272;2022-12-24T02:51:53;10.20;99.90
44767;DHT22;30487;48.716;9.272;2022-12-24T02:54:19;10.10;99.90
44767;DHT22;30487;48.716;9.272;2022-12-24T03:00:08;10.00;99.90
44767;DHT22;30487;48.716;9.272;2022-12-24T03:07:42;10.10;99.90
44767;DHT22;30487;48.716;9.272;2022-12-24T03:13:00;10.10;99.90
44767;DHT22;30487;48.716;9.272;2022-12-24T03:15:28;10.10;99.90
44767;DHT22;30487;48.716;9.272;2022-12-24T03:17:58;10.20;99.90
44767;DHT22;30487;48.716;9.272;2022-12-24T03:20:40;10.20;99.90
44767;DHT22;30487;48.716;9.272;2022-12-24T03:23:06;10.10;99.90
44767;DHT22;30487;48.716;9.272;2022-12-24T03:25:33;10.10;99.90
44767;DHT22;30487;48.716;9.272;2022-12-24T03:28:02;10.00;99.90
44767;DHT22;30487;48.716;9.272;2022-12-24T03:30:29;10.00;99.90
44767;DHT22;30487;48.716;9.272;2022-12-24T03:32:54;9.90;99.90
44767;DHT22;30487;48.716;9.272;2022-12-24T03:35:20;9.90;99.90
44767;DHT22;30487;48.716;9.272;2022-12-24T03:37:46;9.80;99.90
44767;DHT22;30487;48.716;9.272;2022-12-24T03:40:11;9.80;99.90
44767;DHT22;30487;48.716;9.272;2022-12-24T03:42:37;9.80;99.90
44767;DHT22;30487;48.716;9.272;2022-12-24T03:45:03;9.80;99.90
44767;DHT22;30487;48.716;9.272;2022-12-24T03:47:30;9.80;99.90
44767;DHT22;30487;48.716;9.272;2022-12-24T03:49:55;9.90;99.90
44767;DHT22;30487;48.716;9.272;2022-12-24T03:52:21;9.80;99.90
44767;DHT22;30487;48.716;9.272;2022-12-24T03:54:46;9.80;99.90
44767;DHT22;30487;48.716;9.272;2022-12-24T03:57:12;9.80;99.90
44767;DHT22;30487;48.716;9.272;2022-12-24T03:59:38;9.80;99.90
44767;DHT22;30487;48.716;9.272;2022-12-24T04:02:03;9.70;99.90
44767;DHT22;30487;48.716;9.272;2022-12-24T04:04:29;9.80;99.90
44767;DHT22;30487;48.716;9.272;2022-12-24T04:06:54;9.70;99.90
44767;DHT22;30487;48.716;9.272;2022-12-24T04:09:20;9.70;99.90
44767;DHT22;30487;48.716;9.272;2022-12-24T04:11:45;9.70;99.90
44767;DHT22;30487;48.716;9.272;2022-12-24T04:14:11;9.60;99.90
44767;DHT22;30487;48.716;9.272;2022-12-24T04:16:37;9.70;99.90
44767;DHT22;30487;48.716;9.272;2022-12-24T04:19:02;9.60;99.90
44767;DHT22;30487;48.716;9.272;2022-12-24T04:21:28;9.60;99.90
44767;DHT22;30487;48.716;9.272;2022-12-24T04:23:53;9.60;99.90
44767;DHT22;30487;48.716;9.272;2022-12-24T04:26:19;9.60;99.90
44767;DHT22;30487;48.716;9.272;2022-12-24T04:28:44;9.70;99.90
44767;DHT22;30487;48.716;9.272;2022-12-24T04:31:13;9.60;99.90
44767;DHT22;30487;48.716;9.272;2022-12-24T04:33:38;9.50;99.90
44767;DHT22;30487;48.716;9.272;2022-12-24T04:36:06;9.50;99.90
44767;DHT22;30487;48.716;9.272;2022-12-24T04:38:32;9.50;99.90
44767;DHT22;30487;48.716;9.272;2022-12-24T04:41:07;9.50;99.90
44767;DHT22;30487;48.716;9.272;2022-12-24T04:43:33;9.50;99.90
44767;DHT22;30487;48.716;9.272;2022-12-24T04:46:07;9.50;99.90
44767;DHT22;30487;48.716;9.272;2022-12-24T04:48:33;9.50;99.90
44767;DHT22;30487;48.716;9.272;2022-12-24T04:51:04;9.50;99.90
44767;DHT22;30487;48.716;9.272;2022-12-24T04:53:30;9.50;99.90
44767;DHT22;30487;48.716;9.272;2022-12-24T04:55:56;9.50;99.90
44767;DHT22;30487;48.716;9.272;2022-12-24T04:58:22;9.60;99.90
44767;DHT22;30487;48.716;9.272;2022-12-24T05:00:48;9.50;99.90
44767;DHT22;30487;48.716;9.272;2022-12-24T05:03:13;9.50;99.90
44767;DHT22;30487;48.716;9.272;2022-12-24T05:05:39;9.50;99.90
44767;DHT22;30487;48.716;9.272;2022-12-24T05:08:05;9.50;99.90
44767;DHT22;30487;48.716;9.272;2022-12-24T05:10:31;9.50;99.90
44767;DHT22;30487;48.716;9.272;2022-12-24T05:12:57;9.50;99.90
44767;DHT22;30487;48.716;9.272;2022-12-24T05:15:22;9.40;99.90
44767;DHT22;30487;48.716;9.272;2022-12-24T05:17:48;9.40;99.90
44767;DHT22;30487;48.716;9.272;2022-12-24T05:20:13;9.50;99.90
44767;DHT22;30487;48.716;9.272;2022-12-24T05:22:40;9.40;99.90
44767;DHT22;30487;48.716;9.272;2022-12-24T05:25:26;9.40;99.90
44767;DHT22;30487;48.716;9.272;2022-12-24T05:28:24;9.50;99.90
44767;DHT22;30487;48.716;9.272;2022-12-24T05:30:50;9.50;99.90
44767;DHT22;30487;48.716;9.272;2022-12-24T05:33:16;9.50;99.90
44767;DHT22;30487;48.716;9.272;2022-12-24T05:35:41;9.50;99.90
44767;DHT22;30487;48.716;9.272;2022-12-24T05:38:07;9.50;99.90
44767;DHT22;30487;48.716;9.272;2022-12-24T05:40:33;9.50;99.90
44767;DHT22;30487;48.716;9.272;2022-12-24T05:42:58;9.50;99.90
44767;DHT22;30487;48.716;9.272;2022-12-24T05:45:24;9.50;99.90
44767;DHT22;30487;48.716;9.272;2022-12-24T05:47:49;9.50;99.90
44767;DHT22;30487;48.716;9.272;2022-12-24T05:50:15;9.50;99.90
44767;DHT22;30487;48.716;9.272;2022-12-24T05:52:41;9.50;99.90
44767;DHT22;30487;48.716;9.272;2022-12-24T05:55:07;9.60;99.90
44767;DHT22;30487;48.716;9.272;2022-12-24T05:57:33;9.50;99.90
44767;DHT22;30487;48.716;9.272;2022-12-24T05:59:59;9.40;99.90
44767;DHT22;30487;48.716;9.272;2022-12-24T06:02:24;9.40;99.90
44767;DHT22;30487;48.716;9.272;2022-12-24T06:04:50;9.40;99.90
44767;DHT22;30487;48.716;9.272;2022-12-24T06:07:15;9.40;99.90
44767;DHT22;30487;48.716;9.272;2022-12-24T06:09:41;9.40;99.90
44767;DHT22;30487;48.716;9.272;2022-12-24T06:12:07;9.40;99.90
44767;DHT22;30487;48.716;9.272;2022-12-24T06:14:32;9.50;99.90
44767;DHT22;30487;48.716;9.272;2022-12-24T06:16:58;9.40;99.90
44767;DHT22;30487;48.716;9.272;2022-12-24T06:19:23;9.40;99.90
44767;DHT22;30487;48.716;9.272;2022-12-24T06:21:49;9.40;99.90
44767;DHT22;30487;48.716;9.272;2022-12-24T06:24:14;9.40;99.90
44767;DHT22;30487;48.716;9.272;2022-12-24T06:26:40;9.40;99.90
44767;DHT22;30487;48.716;9.272;2022-12-24T06:29:06;9.30;99.90
44767;DHT22;30487;48.716;9.272;2022-12-24T06:31:32;9.40;99.90
44767;DHT22;30487;48.716;9.272;2022-12-24T06:33:57;9.30;99.90
44767;DHT22;30487;48.716;9.272;2022-12-24T06:36:24;9.40;99.90
44767;DHT22;30487;48.716;9.272;2022-12-24T06:38:50;9.40;99.90
44767;DHT22;30487;48.716;9.272;2022-12-24T06:41:17;9.40;99.90
44767;DHT22;30487;48.716;9.272;2022-12-24T06:43:44;9.40;99.90
44767;DHT22;30487;48.716;9.272;2022-12-24T06:46:10;9.30;99.90
44767;DHT22;30487;48.716;9.272;2022-12-24T06:48:36;9.30;99.90
44767;DHT22;30487;48.716;9.272;2022-12-24T06:51:02;9.20;99.90
44767;DHT22;30487;48.716;9.272;2022-12-24T06:53:28;9.20;99.90
44767;DHT22;30487;48.716;9.272;2022-12-24T06:56:03;9.20;99.90
44767;DHT22;30487;48.716;9.272;2022-12-24T06:58:29;9.30;99.90
44767;DHT22;30487;48.716;9.272;2022-12-24T07:00:55;9.20;99.90
44767;DHT22;30487;48.716;9.272;2022-12-24T07:03:20;9.20;99.90
44767;DHT22;30487;48.716;9.272;2022-12-24T07:05:46;9.20;99.90
44767;DHT22;30487;48.716;9.272;2022-12-24T07:08:12;9.30;99.90
44767;DHT22;30487;48.716;9.272;2022-12-24T07:10:37;9.30;99.90
44767;DHT22;30487;48.716;9.272;2022-12-24T07:13:03;9.30;99.90
44767;DHT22;30487;48.716;9.272;2022-12-24T07:15:28;9.20;99.90
44767;DHT22;30487;48.716;9.272;2022-12-24T07:17:54;9.30;99.90
44767;DHT22;30487;48.716;9.272;2022-12-24T07:20:20;9.30;99.90
44767;DHT22;30487;48.716;9.272;2022-12-24T07:22:45;9.20;99.90
44767;DHT22;30487;48.716;9.272;2022-12-24T07:25:11;9.30;99.90
44767;DHT22;30487;48.716;9.272;2022-12-24T07:27:37;9.30;99.90
44767;DHT22;30487;48.716;9.272;2022-12-24T07:30:04;9.30;99.90
44767;DHT22;30487;48.716;9.272;2022-12-24T07:32:29;9.30;99.90
44767;DHT22;30487;48.716;9.272;2022-12-24T07:34:56;9.30;99.90
44767;DHT22;30487;48.716;9.272;2022-12-24T07:37:21;9.30;99.90
44767;DHT22;30487;48.716;9.272;2022-12-24T07:39:47;9.30;99.90
44767;DHT22;30487;48.716;9.272;2022-12-24T07:42:12;9.30;99.90
44767;DHT22;30487;48.716;9.272;2022-12-24T07:44:38;9.40;99.90
44767;DHT22;30487;48.716;9.272;2022-12-24T07:47:04;9.40;99.90
44767;DHT22;30487;48.716;9.272;2022-12-24T07:49:29;9.40;99.90
44767;DHT22;30487;48.716;9.272;2022-12-24T07:51:55;9.40;99.90
44767;DHT22;30487;48.716;9.272;2022-12-24T07:54:21;9.40;99.90
44767;DHT22;30487;48.716;9.272;2022-12-24T07:56:46;9.40;99.90
44767;DHT22;30487;48.716;9.272;2022-12-24T07:59:12;9.40;99.90
44767;DHT22;30487;48.716;9.272;2022-12-24T08:01:39;9.40;99.90
44767;DHT22;30487;48.716;9.272;2022-12-24T08:04:04;9.40;99.90
44767;DHT22;30487;48.716;9.272;2022-12-24T08:06:30;9.40;99.90
44767;DHT22;30487;48.716;9.272;2022-12-24T08:08:56;9.40;99.90
44767;DHT22;30487;48.716;9.272;2022-12-24T08:11:21;9.40;99.90
44767;DHT22;30487;48.716;9.272;2022-12-24T08:13:47;9.40;99.90
44767;DHT22;30487;48.716;9.272;2022-12-24T08:16:12;9.40;99.90
44767;DHT22;30487;48.716;9.272;2022-12-24T08:18:38;9.40;99.90
44767;DHT22;30487;48.716;9.272;2022-12-24T08:21:06;9.40;99.90
44767;DHT22;30487;48.716;9.272;2022-12-24T08:23:33;9.40;99.90
44767;DHT22;30487;48.716;9.272;2022-12-24T08:25:58;9.40;99.90
44767;DHT22;30487;48.716;9.272;2022-12-24T08:28:24;9.40;99.90
44767;DHT22;30487;48.716;9.272;2022-12-24T08:30:50;9.50;99.90
44767;DHT22;30487;48.716;9.272;2022-12-24T08:33:16;9.50;99.90
44767;DHT22;30487;48.716;9.272;2022-12-24T08:35:49;9.50;99.90
44767;DHT22;30487;48.716;9.272;2022-12-24T08:38:15;9.50;99.90
44767;DHT22;30487;48.716;9.272;2022-12-24T08:40:42;9.50;99.90
44767;DHT22;30487;48.716;9.272;2022-12-24T08:43:07;9.60;99.90
44767;DHT22;30487;48.716;9.272;2022-12-24T08:45:33;9.60;99.90
44767;DHT22;30487;48.716;9.272;2022-12-24T08:47:59;9.70;99.90
44767;DHT22;30487;48.716;9.272;2022-12-24T08:50:25;9.60;99.90
44767;DHT22;30487;48.716;9.272;2022-12-24T08:52:52;9.70;99.90
44767;DHT22;30487;48.716;9.272;2022-12-24T08:55:18;9.70;99.90
44767;DHT22;30487;48.716;9.272;2022-12-24T08:57:44;9.70;99.90
44767;DHT22;30487;48.716;9.272;2022-12-24T09:00:11;9.70;99.90
44767;DHT22;30487;48.716;9.272;2022-12-24T09:02:37;9.70;99.90
44767;DHT22;30487;48.716;9.272;2022-12-24T09:05:03;9.70;99.90
44767;DHT22;30487;48.716;9.272;2022-12-24T09:07:29;9.80;99.90
44767;DHT22;30487;48.716;9.272;2022-12-24T09:09:55;9.90;99.90
44767;DHT22;30487;48.716;9.272;2022-12-24T09:12:20;10.00;99.90
44767;DHT22;30487;48.716;9.272;2022-12-24T09:14:46;10.10;99.90
44767;DHT22;30487;48.716;9.272;2022-12-24T09:17:12;10.00;99.90
44767;DHT22;30487;48.716;9.272;2022-12-24T09:19:37;10.10;99.90
44767;DHT22;30487;48.716;9.272;2022-12-24T09:22:03;10.10;99.90
44767;DHT22;30487;48.716;9.272;2022-12-24T09:24:28;10.20;99.90
44767;DHT22;30487;48.716;9.272;2022-12-24T09:26:54;10.40;99.90
44767;DHT22;30487;48.716;9.272;2022-12-24T09:29:19;10.50;99.90
44767;DHT22;30487;48.716;9.272;2022-12-24T09:31:45;10.70;99.90
44767;DHT22;30487;48.716;9.272;2022-12-24T09:34:11;10.80;99.90
44767;DHT22;30487;48.716;9.272;2022-12-24T09:36:36;11.00;99.90
44767;DHT22;30487;48.716;9.272;2022-12-24T09:39:02;11.10;99.90
44767;DHT22;30487;48.716;9.272;2022-12-24T09:41:53;11.30;99.90
44767;DHT22;30487;48.716;9.272;2022-12-24T09:47:14;11.50;99.90
44767;DHT22;30487;48.716;9.272;2022-12-24T09:49:45;11.60;99.90
44767;DHT22;30487;48.716;9.272;2022-12-24T09:52:15;11.60;99.90
44767;DHT22;30487;48.716;9.272;2022-12-24T09:54:57;11.70;99.90
44767;DHT22;30487;48.716;9.272;2022-12-24T09:57:34;11.60;99.90
44767;DHT22;30487;48.716;9.272;2022-12-24T10:00:01;11.40;99.90
44767;DHT22;30487;48.716;9.272;2022-12-24T10:02:27;11.30;99.90
44767;DHT22;30487;48.716;9.272;2022-12-24T10:04:53;11.20;99.90
44767;DHT22;30487;48.716;9.272;2022-12-24T10:07:27;11.20;99.90
44767;DHT22;30487;48.716;9.272;2022-12-24T10:10:13;11.20;99.90
44767;DHT22;30487;48.716;9.272;2022-12-24T10:13:21;11.40;99.90
44767;DHT22;30487;48.716;9.272;2022-12-24T10:15:56;11.70;99.90
44767;DHT22;30487;48.716;9.272;2022-12-24T10:18:57;11.90;99.90
44767;DHT22;30487;48.716;9.272;2022-12-24T10:24:18;11.90;99.90
44767;DHT22;30487;48.716;9.272;2022-12-24T10:26:51;12.00;99.90
44767;DHT22;30487;48.716;9.272;2022-12-24T10:29:31;12.10;99.90
44767;DHT22;30487;48.716;9.272;2022-12-24T10:37:47;12.50;99.90
44767;DHT22;30487;48.716;9.272;2022-12-24T10:40:21;12.50;99.90
44767;DHT22;30487;48.716;9.272;2022-12-24T10:42:48;12.50;99.90
44767;DHT22;30487;48.716;9.272;2022-12-24T10:45:16;12.50;99.90
44767;DHT22;30487;48.716;9.272;2022-12-24T10:47:45;12.50;99.90
44767;DHT22;30487;48.716;9.272;2022-12-24T10:50:18;12.60;99.90
44767;DHT22;30487;48.716;9.272;2022-12-24T10:52:45;12.60;99.90
44767;DHT22;30487;48.716;9.272;2022-12-24T10:57:46;12.50;99.90
44767;DHT22;30487;48.716;9.272;2022-12-24T11:00:22;12.40;99.90
44767;DHT22;30487;48.716;9.272;2022-12-24T11:02:49;12.30;99.90
44767;DHT22;30487;48.716;9.272;2022-12-24T11:05:31;12.30;99.90
44767;DHT22;30487;48.716;9.272;2022-12-24T11:10:44;12.30;99.90
44767;DHT22;30487;48.716;9.272;2022-12-24T11:18:50;12.40;99.90
44767;DHT22;30487;48.716;9.272;2022-12-24T11:21:38;12.40;99.90
44767;DHT22;30487;48.716;9.272;2022-12-24T11:24:16;12.50;99.90
44767;DHT22;30487;48.716;9.272;2022-12-24T11:26:45;12.50;99.90
44767;DHT22;30487;48.716;9.272;2022-12-24T11:29:15;12.40;99.90
44767;DHT22;30487;48.716;9.272;2022-12-24T11:31:45;12.30;99.90
44767;DHT22;30487;48.716;9.272;2022-12-24T11:36:53;12.20;99.90
44767;DHT22;30487;48.716;9.272;2022-12-24T11:39:23;12.30;99.90
44767;DHT22;30487;48.716;9.272;2022-12-24T11:41:49;12.30;99.90
44767;DHT22;30487;48.716;9.272;2022-12-24T11:44:27;12.20;99.90
44767;DHT22;30487;48.716;9.272;2022-12-24T11:46:54;12.40;99.90
44767;DHT22;30487;48.716;9.272;2022-12-24T11:49:30;12.50;99.90
44767;DHT22;30487;48.716;9.272;2022-12-24T11:57:40;12.50;99.90
44767;DHT22;30487;48.716;9.272;2022-12-24T12:00:10;12.60;99.90
44767;DHT22;30487;48.716;9.272;2022-12-24T12:02:38;12.80;99.90
44767;DHT22;30487;48.716;9.272;2022-12-24T12:05:22;13.00;99.90
44767;DHT22;30487;48.716;9.272;2022-12-24T12:07:52;13.10;99.90
44767;DHT22;30487;48.716;9.272;2022-12-24T12:10:27;13.30;99.90
44767;DHT22;30487;48.716;9.272;2022-12-24T12:16:04;13.70;99.90
44767;DHT22;30487;48.716;9.272;2022-12-24T12:18:35;14.00;99.90
44767;DHT22;30487;48.716;9.272;2022-12-24T12:21:11;14.40;99.90
44767;DHT22;30487;48.716;9.272;2022-12-24T12:23:54;14.80;99.90
44767;DHT22;30487;48.716;9.272;2022-12-24T12:26:25;15.30;99.90
44767;DHT22;30487;48.716;9.272;2022-12-24T12:36:48;18.20;99.90
44767;DHT22;30487;48.716;9.272;2022-12-24T12:39:15;19.00;98.90
44767;DHT22;30487;48.716;9.272;2022-12-24T12:42:13;19.20;96.70
44767;DHT22;30487;48.716;9.272;2022-12-24T12:53:18;20.90;89.40
44767;DHT22;30487;48.716;9.272;2022-12-24T12:56:19;20.30;90.10
44767;DHT22;30487;48.716;9.272;2022-12-24T13:01:40;18.40;91.00
44767;DHT22;30487;48.716;9.272;2022-12-24T13:06:38;17.20;92.80
44767;DHT22;30487;48.716;9.272;2022-12-24T13:22:33;15.10;98.10
44767;DHT22;30487;48.716;9.272;2022-12-24T13:24:59;15.20;98.20
44767;DHT22;30487;48.716;9.272;2022-12-24T13:27:30;15.20;98.50
44767;DHT22;30487;48.716;9.272;2022-12-24T13:32:48;15.10;97.80
44767;DHT22;30487;48.716;9.272;2022-12-24T13:37:47;14.60;99.10
44767;DHT22;30487;48.716;9.272;2022-12-24T13:40:24;14.60;99.40
44767;DHT22;30487;48.716;9.272;2022-12-24T13:42:50;14.60;99.40
44767;DHT22;30487;48.716;9.272;2022-12-24T13:47:55;14.30;99.90
44767;DHT22;30487;48.716;9.272;2022-12-24T13:53:00;14.10;99.90
44767;DHT22;30487;48.716;9.272;2022-12-24T13:55:26;13.90;99.90
44767;DHT22;30487;48.716;9.272;2022-12-24T13:57:56;13.70;99.90
44767;DHT22;30487;48.716;9.272;2022-12-24T14:00:30;13.70;99.90
44767;DHT22;30487;48.716;9.272;2022-12-24T14:11:07;13.80;99.90
44767;DHT22;30487;48.716;9.272;2022-12-24T14:21:34;13.50;99.90
44767;DHT22;30487;48.716;9.272;2022-12-24T14:24:04;13.50;99.90
44767;DHT22;30487;48.716;9.272;2022-12-24T14:26:42;13.50;99.90
44767;DHT22;30487;48.716;9.272;2022-12-24T14:31:57;13.50;99.90
44767;DHT22;30487;48.716;9.272;2022-12-24T14:34:24;13.40;99.90
44767;DHT22;30487;48.716;9.272;2022-12-24T14:36:53;13.40;99.90
44767;DHT22;30487;48.716;9.272;2022-12-24T14:39:42;13.40;99.90
44767;DHT22;30487;48.716;9.272;2022-12-24T14:42:35;13.30;99.90
44767;DHT22;30487;48.716;9.272;2022-12-24T14:45:23;13.20;99.90
44767;DHT22;30487;48.716;9.272;2022-12-24T14:48:15;13.10;99.90
44767;DHT22;30487;48.716;9.272;2022-12-24T14:54:03;13.00;99.90
44767;DHT22;30487;48.716;9.272;2022-12-24T14:56:32;13.00;99.90
44767;DHT22;30487;48.716;9.272;2022-12-24T14:58:57;12.90;99.90
44767;DHT22;30487;48.716;9.272;2022-12-24T15:01:30;12.80;99.90
44767;DHT22;30487;48.716;9.272;2022-12-24T15:04:18;12.70;99.90
44767;DHT22;30487;48.716;9.272;2022-12-24T15:06:49;12.70;99.90
44767;DHT22;30487;48.716;9.272;2022-12-24T15:09:20;12.50;99.90
44767;DHT22;30487;48.716;9.272;2022-12-24T15:11:48;12.50;99.90
44767;DHT22;30487;48.716;9.272;2022-12-24T15:14:16;12.40;99.90
44767;DHT22;30487;48.716;9.272;2022-12-24T15:16:59;12.30;99.90
44767;DHT22;30487;48.716;9.272;2022-12-24T15:19:30;12.30;99.90
44767;DHT22;30487;48.716;9.272;2022-12-24T15:21:57;12.20;99.90
44767;DHT22;30487;48.716;9.272;2022-12-24T15:24:31;12.20;99.90
44767;DHT22;30487;48.716;9.272;2022-12-24T15:26:59;12.10;99.90
44767;DHT22;30487;48.716;9.272;2022-12-24T15:29:30;12.10;99.90
44767;DHT22;30487;48.716;9.272;2022-12-24T15:31:58;12.10;99.90
44767;DHT22;30487;48.716;9.272;2022-12-24T15:37:15;12.00;99.90
44767;DHT22;30487;48.716;9.272;2022-12-24T15:39:41;11.90;99.90
44767;DHT22;30487;48.716;9.272;2022-12-24T15:42:08;11.90;99.90
44767;DHT22;30487;48.716;9.272;2022-12-24T15:44:40;11.80;99.90
44767;DHT22;30487;48.716;9.272;2022-12-24T15:47:18;11.60;99.90
44767;DHT22;30487;48.716;9.272;2022-12-24T15:49:49;11.50;99.90
44767;DHT22;30487;48.716;9.272;2022-12-24T15:52:18;11.50;99.90
44767;DHT22;30487;48.716;9.272;2022-12-24T15:54:46;11.40;99.90
44767;DHT22;30487;48.716;9.272;2022-12-24T15:57:32;11.40;99.90
44767;DHT22;30487;48.716;9.272;2022-12-24T16:00:01;11.50;99.90
44767;DHT22;30487;48.716;9.272;2022-12-24T16:02:41;11.50;99.90
44767;DHT22;30487;48.716;9.272;2022-12-24T16:05:26;11.60;99.90
44767;DHT22;30487;48.716;9.272;2022-12-24T16:08:22;11.50;99.90
44767;DHT22;30487;48.716;9.272;2022-12-24T16:11:06;11.60;99.90
44767;DHT22;30487;48.716;9.272;2022-12-24T16:13:39;11.60;99.90
44767;DHT22;30487;48.716;9.272;2022-12-24T16:16:07;11.60;99.90
44767;DHT22;30487;48.716;9.272;2022-12-24T16:18:39;11.50;99.90
44767;DHT22;30487;48.716;9.272;2022-12-24T16:21:06;11.50;99.90
44767;DHT22;30487;48.716;9.272;2022-12-24T16:23:49;11.50;99.90
44767;DHT22;30487;48.716;9.272;2022-12-24T16:26:16;11.50;99.90
44767;DHT22;30487;48.716;9.272;2022-12-24T16:28:42;11.50;99.90
44767;DHT22;30487;48.716;9.272;2022-12-24T16:31:16;11.50;99.90
44767;DHT22;30487;48.716;9.272;2022-12-24T16:33:42;11.50;99.90
44767;DHT22;30487;48.716;9.272;2022-12-24T16:36:09;11.40;99.90
44767;DHT22;30487;48.716;9.272;2022-12-24T16:38:34;11.50;99.90
44767;DHT22;30487;48.716;9.272;2022-12-24T16:41:21;11.40;99.90
44767;DHT22;30487;48.716;9.272;2022-12-24T16:43:46;11.40;99.90
44767;DHT22;30487;48.716;9.272;2022-12-24T16:46:15;11.20;99.90
44767;DHT22;30487;48.716;9.272;2022-12-24T16:48:44;11.10;99.90
44767;DHT22;30487;48.716;9.272;2022-12-24T16:51:10;11.00;99.90
44767;DHT22;30487;48.716;9.272;2022-12-24T16:53:36;11.00;99.90
44767;DHT22;30487;48.716;9.272;2022-12-24T16:56:01;10.90;99.90
44767;DHT22;30487;48.716;9.272;2022-12-24T16:58:27;10.90;99.90
44767;DHT22;30487;48.716;9.272;2022-12-24T17:00:54;10.90;99.90
44767;DHT22;30487;48.716;9.272;2022-12-24T17:03:19;10.80;99.90
44767;DHT22;30487;48.716;9.272;2022-12-24T17:05:45;10.80;99.90
44767;DHT22;30487;48.716;9.272;2022-12-24T17:08:11;10.70;99.90
44767;DHT22;30487;48.716;9.272;2022-12-24T17:10:38;10.70;99.90
44767;DHT22;30487;48.716;9.272;2022-12-24T17:13:04;10.70;99.90
44767;DHT22;30487;48.716;9.272;2022-12-24T17:15:30;10.80;99.90
44767;DHT22;30487;48.716;9.272;2022-12-24T17:17:55;10.80;99.90
44767;DHT22;30487;48.716;9.272;2022-12-24T17:20:21;10.80;99.90
44767;DHT22;30487;48.716;9.272;2022-12-24T17:22:48;10.90;99.90
44767;DHT22;30487;48.716;9.272;2022-12-24T17:25:13;10.90;99.90
44767;DHT22;30487;48.716;9.272;2022-12-24T17:27:40;10.80;99.90
44767;DHT22;30487;48.716;9.272;2022-12-24T17:30:06;10.70;99.90
44767;DHT22;30487;48.716;9.272;2022-12-24T17:32:32;10.70;99.90
44767;DHT22;30487;48.716;9.272;2022-12-24T17:34:58;10.70;99.90
44767;DHT22;30487;48.716;9.272;2022-12-24T17:37:25;10.70;99.90
44767;DHT22;30487;48.716;9.272;2022-12-24T17:39:50;10.70;99.90
44767;DHT22;30487;48.716;9.272;2022-12-24T17:42:16;10.60;99.90
44767;DHT22;30487;48.716;9.272;2022-12-24T17:44:42;10.60;99.90
44767;DHT22;30487;48.716;9.272;2022-12-24T17:47:07;10.60;99.90
44767;DHT22;30487;48.716;9.272;2022-12-24T17:49:33;10.60;99.90
44767;DHT22;30487;48.716;9.272;2022-12-24T17:51:59;10.60;99.90
44767;DHT22;30487;48.716;9.272;2022-12-24T17:54:24;10.70;99.90
44767;DHT22;30487;48.716;9.272;2022-12-24T17:56:50;10.70;99.90
44767;DHT22;30487;48.716;9.272;2022-12-24T17:59:15;10.60;99.90